Time;durP1;ratioP1;P1;durP2;ratioP2;P2;SDS_P1;SDS_P2;PMS_P1;PMS_P2;Temp;Humidity;BMP_temperature;BMP_pressure;BME280_temperature;BME280_humidity;BME280_pressure;Samples;Min_cycle;Max_cycle;Signal;HPM_P1;HPM_P2
2022/09/20 00:00:40;;;;;;;4.53;2.60;;;13.70;99.90;;;;;;4930805;29;20066;-89
2022/09/20 00:03:07;;;;;;;2.63;2.42;;;13.80;99.90;;;;;;4913686;29;20036;-88
2022/09/20 00:05:37;;;;;;;1.40;1.30;;;13.70;99.90;;;;;;4911243;29;20063;-87
2022/09/20 00:08:07;;;;;;;8.35;2.17;;;13.70;99.90;;;;;;4929676;29;20036;-89
2022/09/20 00:10:38;;;;;;;4.25;3.03;;;13.70;99.90;;;;;;4929160;29;20042;-88
2022/09/20 00:13:09;;;;;;;6.07;3.25;;;13.70;99.90;;;;;;4945203;29;20033;-88
2022/09/20 00:15:44;;;;;;;6.25;2.65;;;13.70;99.90;;;;;;4913503;29;20041;-88
2022/09/20 00:18:10;;;;;;;2.08;1.85;;;13.70;99.90;;;;;;4944477;29;20031;-90
2022/09/20 00:20:36;;;;;;;10.07;2.72;;;13.70;99.90;;;;;;4932250;29;20493;-89
2022/09/20 00:23:02;;;;;;;2.65;1.92;;;13.70;99.90;;;;;;4932150;29;20108;-88
2022/09/20 00:25:29;;;;;;;4.05;2.88;;;13.70;99.90;;;;;;4932310;29;20556;-88
2022/09/20 00:27:54;;;;;;;6.97;2.78;;;13.70;99.90;;;;;;4932166;29;20024;-89
2022/09/20 00:30:20;;;;;;;7.85;2.47;;;13.70;99.90;;;;;;4916360;29;20043;-88
2022/09/20 00:32:47;;;;;;;5.53;2.40;;;13.70;99.90;;;;;;4929029;29;20028;-88
2022/09/20 00:35:13;;;;;;;12.20;2.78;;;13.70;99.90;;;;;;4928816;29;20481;-89
2022/09/20 00:37:43;;;;;;;4.22;2.40;;;13.70;99.90;;;;;;4928885;29;20112;-89
2022/09/20 00:40:14;;;;;;;5.28;1.95;;;13.70;99.90;;;;;;4929036;29;20032;-88
2022/09/20 00:42:40;;;;;;;5.15;4.07;;;13.70;99.90;;;;;;4928998;29;20111;-88
2022/09/20 00:45:07;;;;;;;8.43;3.17;;;13.70;99.90;;;;;;4928433;29;20031;-88
2022/09/20 00:47:43;;;;;;;9.70;2.85;;;13.60;99.90;;;;;;4947763;29;20167;-89
2022/09/20 00:50:27;;;;;;;5.18;2.80;;;13.60;99.90;;;;;;4947947;29;20767;-89
2022/09/20 00:53:11;;;;;;;6.35;3.47;;;13.60;99.90;;;;;;4947904;29;20032;-88
2022/09/20 00:55:44;;;;;;;5.45;2.78;;;13.60;99.90;;;;;;4932233;29;20032;-89
2022/09/20 00:58:11;;;;;;;9.02;2.90;;;13.60;99.90;;;;;;4931658;29;20028;-89
2022/09/20 01:00:38;;;;;;;4.88;3.08;;;13.60;99.90;;;;;;4915415;29;20024;-88
2022/09/20 01:03:09;;;;;;;5.15;2.63;;;13.60;99.90;;;;;;4912727;29;20382;-89
2022/09/20 01:05:37;;;;;;;2.88;2.65;;;13.60;99.90;;;;;;4928768;29;20032;-88
2022/09/20 01:08:03;;;;;;;9.00;3.55;;;13.60;99.90;;;;;;4928974;29;20177;-88
2022/09/20 01:10:30;;;;;;;5.93;2.97;;;13.60;99.90;;;;;;4897387;29;20036;-88
2022/09/20 01:12:57;;;;;;;6.53;3.20;;;13.60;99.90;;;;;;4928396;29;20032;-88
2022/09/20 01:15:26;;;;;;;4.78;2.80;;;13.60;99.90;;;;;;4912908;29;20024;-89
2022/09/20 01:17:54;;;;;;;5.10;2.67;;;13.60;99.90;;;;;;4915380;29;20037;-89
2022/09/20 01:20:30;;;;;;;8.55;3.78;;;13.60;99.90;;;;;;4928463;29;20036;-88
2022/09/20 01:23:21;;;;;;;5.28;3.22;;;13.60;99.90;;;;;;4917270;29;20512;-88
2022/09/20 01:26:24;;;;;;;3.50;2.47;;;13.50;99.90;;;;;;4931481;29;20036;-88
2022/09/20 01:29:15;;;;;;;3.03;2.83;;;13.50;99.90;;;;;;4947340;29;20596;-88
2022/09/20 01:31:51;;;;;;;3.60;2.95;;;13.50;99.90;;;;;;4893305;29;20048;-88
2022/09/20 01:34:27;;;;;;;5.18;3.33;;;13.50;99.90;;;;;;4947350;29;20132;-88
2022/09/20 01:36:55;;;;;;;3.47;3.25;;;13.50;99.90;;;;;;4937285;29;20051;-89
2022/09/20 01:39:48;;;;;;;3.00;2.80;;;13.50;99.90;;;;;;4912375;29;20040;-88
2022/09/20 01:42:14;;;;;;;7.40;2.83;;;13.50;99.90;;;;;;4912415;29;20434;-89
2022/09/20 01:45:09;;;;;;;8.18;3.15;;;13.50;99.90;;;;;;4912547;29;20024;-88
2022/09/20 01:47:43;;;;;;;7.22;2.90;;;13.50;99.90;;;;;;4928248;29;20044;-87
2022/09/20 01:50:18;;;;;;;2.65;2.45;;;13.50;99.90;;;;;;4929026;29;20036;-88
2022/09/20 01:53:18;;;;;;;7.05;3.85;;;13.50;99.90;;;;;;4928048;29;20064;-88
2022/09/20 01:56:07;;;;;;;7.03;2.58;;;13.50;99.90;;;;;;4927972;29;20032;-87
2022/09/20 01:59:17;;;;;;;5.13;2.78;;;13.50;99.90;;;;;;4923806;29;20047;-88
2022/09/20 02:01:52;;;;;;;4.97;3.45;;;13.50;99.90;;;;;;4874173;29;20051;-88
2022/09/20 02:04:29;;;;;;;5.80;2.67;;;13.50;99.90;;;;;;4859924;29;20033;-87
2022/09/20 02:07:12;;;;;;;3.85;3.45;;;13.50;99.90;;;;;;4908613;29;20040;-89
2022/09/20 02:09:57;;;;;;;3.95;3.42;;;13.50;99.90;;;;;;4931066;29;20031;-88
2022/09/20 02:12:46;;;;;;;4.70;2.10;;;13.50;99.90;;;;;;4947888;29;20036;-86
2022/09/20 02:15:18;;;;;;;3.42;2.75;;;13.50;99.90;;;;;;4950427;29;20038;-88
2022/09/20 02:18:12;;;;;;;2.90;2.65;;;13.50;99.90;;;;;;4950390;29;20043;-88
2022/09/20 02:20:50;;;;;;;5.40;3.95;;;13.50;99.90;;;;;;4937680;29;20036;-88
2022/09/20 02:23:28;;;;;;;4.18;2.63;;;13.40;99.90;;;;;;4931510;29;20038;-88
2022/09/20 02:26:19;;;;;;;4.53;3.60;;;13.50;99.90;;;;;;4931251;29;20393;-88
2022/09/20 02:29:01;;;;;;;2.70;2.42;;;13.40;99.90;;;;;;4930937;29;20500;-88
2022/09/20 02:31:36;;;;;;;3.63;2.20;;;13.40;99.90;;;;;;4915355;29;20040;-89
2022/09/20 02:34:16;;;;;;;4.05;2.47;;;13.40;99.90;;;;;;4931102;29;20099;-88
2022/09/20 02:36:51;;;;;;;4.03;2.90;;;13.40;99.90;;;;;;4930912;29;20052;-88
2022/09/20 02:39:27;;;;;;;8.00;3.03;;;13.40;99.90;;;;;;4931158;29;20393;-88
2022/09/20 02:42:00;;;;;;;4.95;3.83;;;13.40;99.90;;;;;;4930844;29;20036;-88
2022/09/20 02:44:35;;;;;;;12.48;3.00;;;13.40;99.90;;;;;;4930799;29;20401;-87
2022/09/20 02:47:13;;;;;;;5.53;3.45;;;13.40;99.90;;;;;;4930954;29;20028;-89
2022/09/20 02:50:12;;;;;;;2.85;2.10;;;13.40;99.90;;;;;;4930535;29;20028;-88
2022/09/20 02:53:16;;;;;;;7.43;2.75;;;13.40;99.90;;;;;;4914996;29;20060;-88
2022/09/20 02:56:14;;;;;;;8.98;2.92;;;13.40;99.90;;;;;;4893263;29;20387;-88
2022/09/20 02:59:21;;;;;;;6.22;2.88;;;13.40;99.90;;;;;;4925719;29;20450;-88
2022/09/20 03:02:15;;;;;;;3.67;2.85;;;13.40;99.90;;;;;;4922874;29;20072;-89
2022/09/20 03:05:06;;;;;;;3.53;2.17;;;13.40;99.90;;;;;;4942850;29;20036;-88
2022/09/20 03:08:01;;;;;;;4.80;2.70;;;13.40;99.90;;;;;;4942426;29;20102;-89
2022/09/20 03:10:41;;;;;;;2.67;1.52;;;13.40;99.90;;;;;;4949567;29;20099;-88
2022/09/20 03:13:12;;;;;;;7.95;3.70;;;13.40;99.90;;;;;;4933771;29;20035;-87
2022/09/20 03:16:03;;;;;;;3.42;2.80;;;13.40;99.90;;;;;;4951305;29;20111;-88
2022/09/20 03:18:33;;;;;;;3.25;2.33;;;13.40;99.90;;;;;;4933689;29;20042;-88
2022/09/20 03:21:22;;;;;;;3.70;3.28;;;13.40;99.90;;;;;;4933111;29;20035;-89
2022/09/20 03:24:19;;;;;;;4.15;2.85;;;13.40;99.90;;;;;;4909980;29;20051;-88
2022/09/20 03:26:48;;;;;;;2.72;2.53;;;13.40;99.90;;;;;;4914372;29;20398;-89
2022/09/20 03:29:47;;;;;;;3.10;2.80;;;13.40;99.90;;;;;;4914327;29;20040;-89
2022/09/20 03:32:37;;;;;;;2.58;2.35;;;13.40;99.90;;;;;;4929951;29;20035;-88
2022/09/20 03:35:33;;;;;;;2.80;2.60;;;13.40;99.90;;;;;;4914147;29;20039;-88
2022/09/20 03:38:10;;;;;;;5.63;3.45;;;13.40;99.90;;;;;;4924489;29;20123;-88
2022/09/20 03:40:58;;;;;;;3.88;2.28;;;13.40;99.90;;;;;;4933185;29;20397;-88
2022/09/20 03:43:24;;;;;;;9.80;2.78;;;13.40;99.90;;;;;;4933044;29;20044;-88
2022/09/20 03:46:21;;;;;;;6.55;3.15;;;13.40;99.90;;;;;;4933049;29;20036;-89
2022/09/20 03:49:16;;;;;;;5.22;2.90;;;13.40;99.90;;;;;;4948526;29;20027;-88
2022/09/20 03:51:57;;;;;;;2.33;1.73;;;13.40;99.90;;;;;;4930981;29;20043;-88
2022/09/20 03:54:56;;;;;;;5.97;3.75;;;13.40;99.90;;;;;;4937445;29;20438;-88
2022/09/20 03:57:33;;;;;;;2.70;2.03;;;13.40;99.90;;;;;;4949965;29;20123;-88
2022/09/20 04:00:49;;;;;;;7.15;3.17;;;13.40;99.90;;;;;;4948730;29;20095;-88
2022/09/20 04:03:29;;;;;;;3.42;2.20;;;13.40;99.90;;;;;;4920103;29;20409;-88
2022/09/20 04:06:33;;;;;;;2.38;2.17;;;13.40;99.90;;;;;;4932958;29;20028;-88
2022/09/20 04:09:26;;;;;;;5.03;3.10;;;13.40;99.90;;;;;;4947409;29;20395;-89
2022/09/20 04:12:39;;;;;;;4.53;1.92;;;13.40;99.90;;;;;;4948392;29;20442;-88
2022/09/20 04:15:11;;;;;;;5.43;3.28;;;13.40;99.90;;;;;;4921485;29;20123;-89
2022/09/20 04:18:02;;;;;;;5.88;2.70;;;13.40;99.90;;;;;;4924496;29;20396;-88
2022/09/20 04:20:43;;;;;;;3.95;3.22;;;13.40;99.90;;;;;;4946887;29;20099;-87
2022/09/20 04:23:26;;;;;;;3.30;2.90;;;13.40;99.90;;;;;;4934076;29;20043;-88
2022/09/20 04:25:52;;;;;;;3.17;2.53;;;13.40;99.90;;;;;;4928587;29;20088;-88
2022/09/20 04:28:25;;;;;;;3.75;2.28;;;13.30;99.90;;;;;;4908535;29;20028;-88
2022/09/20 04:30:58;;;;;;;6.75;3.38;;;13.30;99.90;;;;;;4926826;29;20039;-88
2022/09/20 04:33:30;;;;;;;7.05;3.25;;;13.30;99.90;;;;;;4937427;29;20031;-88
2022/09/20 04:36:30;;;;;;;5.00;3.42;;;13.30;99.90;;;;;;4918571;29;20071;-88
2022/09/20 04:39:10;;;;;;;3.60;2.45;;;13.30;99.90;;;;;;4946624;29;20028;-89
2022/09/20 04:41:50;;;;;;;4.78;2.97;;;13.30;99.90;;;;;;4941587;29;20083;-89
2022/09/20 04:44:37;;;;;;;2.47;2.28;;;13.30;99.90;;;;;;4936720;29;20040;-88
2022/09/20 04:47:27;;;;;;;9.38;3.35;;;13.30;99.90;;;;;;4923047;29;20040;-88
2022/09/20 04:50:12;;;;;;;3.45;2.78;;;13.30;99.90;;;;;;4928152;29;20035;-89
2022/09/20 04:53:15;;;;;;;2.72;2.35;;;13.30;99.90;;;;;;4924318;29;20079;-88
2022/09/20 04:55:53;;;;;;;4.63;3.13;;;13.20;99.90;;;;;;4945507;29;20034;-87
2022/09/20 04:58:36;;;;;;;4.20;3.00;;;13.30;99.90;;;;;;4928376;29;20020;-88
2022/09/20 05:01:18;;;;;;;2.53;2.05;;;13.30;99.90;;;;;;4943061;29;20035;-89
2022/09/20 05:04:03;;;;;;;4.47;3.13;;;13.30;99.90;;;;;;4958301;29;20039;-89
2022/09/20 05:07:06;;;;;;;3.67;2.60;;;13.30;99.90;;;;;;4925755;29;20039;-88
2022/09/20 05:09:53;;;;;;;7.18;3.15;;;13.30;99.90;;;;;;4947115;29;20134;-89
2022/09/20 05:12:33;;;;;;;5.28;2.85;;;13.30;99.90;;;;;;4943302;29;20032;-88
2022/09/20 05:15:29;;;;;;;8.52;2.50;;;13.30;99.90;;;;;;4930492;29;20493;-89
2022/09/20 05:18:33;;;;;;;5.70;2.65;;;13.30;99.90;;;;;;4930742;29;20039;-88
2022/09/20 05:21:22;;;;;;;8.90;3.08;;;13.30;99.90;;;;;;4929605;29;20061;-89
2022/09/20 05:24:13;;;;;;;8.10;3.47;;;13.30;99.90;;;;;;4933743;29;20409;-88
2022/09/20 05:27:12;;;;;;;3.17;2.35;;;13.30;99.90;;;;;;4945236;29;20469;-87
2022/09/20 05:30:05;;;;;;;10.80;3.00;;;13.30;99.90;;;;;;4939688;29;20036;-87
2022/09/20 05:33:04;;;;;;;8.30;2.35;;;13.30;99.90;;;;;;4918790;29;20044;-88
2022/09/20 05:35:57;;;;;;;8.75;4.72;;;13.30;99.90;;;;;;4928586;29;20027;-87
2022/09/20 05:38:41;;;;;;;7.60;3.38;;;13.30;99.90;;;;;;4931116;29;20035;-89
2022/09/20 05:41:23;;;;;;;12.18;3.67;;;13.30;99.90;;;;;;4945918;29;20032;-87
2022/09/20 05:43:55;;;;;;;6.30;2.97;;;13.30;99.90;;;;;;4946840;29;20042;-89
2022/09/20 05:46:45;;;;;;;6.90;3.33;;;13.30;99.90;;;;;;4947292;29;20039;-88
2022/09/20 05:49:40;;;;;;;4.47;2.80;;;13.30;99.90;;;;;;4946932;29;20038;-88
2022/09/20 05:52:44;;;;;;;4.50;3.17;;;13.30;99.90;;;;;;4937319;29;20047;-87
2022/09/20 05:55:45;;;;;;;10.15;4.13;;;13.30;99.90;;;;;;4928656;29;20533;-89
2022/09/20 05:58:26;;;;;;;6.65;2.85;;;13.30;99.90;;;;;;4932938;29;20143;-88
2022/09/20 06:01:12;;;;;;;3.33;3.03;;;13.30;99.90;;;;;;4916201;29;20031;-87
2022/09/20 06:03:54;;;;;;;4.38;2.45;;;13.30;99.90;;;;;;4931992;29;20157;-86
2022/09/20 06:06:50;;;;;;;3.22;2.92;;;13.30;99.90;;;;;;4931804;29;20059;-86
2022/09/20 06:09:32;;;;;;;4.50;3.45;;;13.30;99.90;;;;;;4916002;29;20055;-87
2022/09/20 06:12:04;;;;;;;8.68;4.28;;;13.30;99.90;;;;;;4936509;29;20035;-87
2022/09/20 06:15:00;;;;;;;4.38;2.80;;;13.30;99.90;;;;;;4950261;29;20062;-87
2022/09/20 06:17:31;;;;;;;5.22;3.75;;;13.30;99.90;;;;;;4950057;29;20027;-87
2022/09/20 06:20:09;;;;;;;4.18;2.78;;;13.30;99.90;;;;;;4950417;29;20039;-87
2022/09/20 06:22:46;;;;;;;4.00;3.70;;;13.30;99.90;;;;;;4934667;29;20036;-87
2022/09/20 06:25:22;;;;;;;3.50;2.72;;;13.30;99.90;;;;;;4950470;29;20047;-87
2022/09/20 06:27:55;;;;;;;6.15;2.85;;;13.30;99.90;;;;;;4950377;29;20108;-86
2022/09/20 06:30:32;;;;;;;3.97;3.13;;;13.30;99.90;;;;;;4946422;29;20036;-86
2022/09/20 06:32:59;;;;;;;3.35;2.40;;;13.30;99.90;;;;;;4947287;29;20032;-87
2022/09/20 06:35:38;;;;;;;2.70;2.50;;;13.30;99.90;;;;;;4949924;29;20026;-87
2022/09/20 06:41:27;;;;;;;3.15;2.67;;;13.30;99.90;;;;;;4950174;29;20112;-86
2022/09/20 06:43:57;;;;;;;4.00;2.40;;;13.40;99.90;;;;;;4919502;29;20036;-87
2022/09/20 06:46:28;;;;;;;7.35;2.25;;;13.40;99.90;;;;;;4908978;29;20067;-86
2022/09/20 06:48:55;;;;;;;3.60;3.15;;;13.40;99.90;;;;;;4931064;29;20064;-87
2022/09/20 06:51:22;;;;;;;2.20;1.92;;;13.40;99.90;;;;;;4930883;29;20042;-86
2022/09/20 06:53:49;;;;;;;10.60;2.58;;;13.40;99.90;;;;;;4930748;29;20036;-87
2022/09/20 06:56:21;;;;;;;3.22;2.70;;;13.40;99.90;;;;;;4915064;29;20071;-87
2022/09/20 06:58:47;;;;;;;3.42;2.63;;;13.40;99.90;;;;;;4915125;29;20025;-87
2022/09/20 07:01:14;;;;;;;4.18;2.85;;;13.40;99.90;;;;;;4924261;29;20103;-87
2022/09/20 07:03:41;;;;;;;6.25;2.55;;;13.40;99.90;;;;;;4933851;29;20035;-88
2022/09/20 07:06:08;;;;;;;7.82;2.67;;;13.40;99.90;;;;;;4934275;29;20027;-87
2022/09/20 07:08:34;;;;;;;5.43;2.92;;;13.40;99.90;;;;;;4934346;29;20099;-87
2022/09/20 07:11:13;;;;;;;4.53;2.63;;;13.40;99.90;;;;;;4949362;29;20110;-88
2022/09/20 07:13:39;;;;;;;2.80;2.47;;;13.50;99.90;;;;;;4949619;29;20027;-88
2022/09/20 07:16:07;;;;;;;4.55;2.17;;;13.50;99.90;;;;;;4938644;29;20035;-87
2022/09/20 07:18:33;;;;;;;2.75;1.88;;;13.50;99.90;;;;;;4941733;29;20478;-87
2022/09/20 07:21:00;;;;;;;6.40;3.08;;;13.50;99.90;;;;;;4946124;29;20043;-87
2022/09/20 07:23:28;;;;;;;5.95;2.53;;;13.50;99.90;;;;;;4899211;29;20035;-87
2022/09/20 07:25:59;;;;;;;3.80;2.30;;;13.50;99.90;;;;;;4930429;29;20107;-87
2022/09/20 07:28:30;;;;;;;2.58;2.10;;;13.50;99.90;;;;;;4946110;29;20036;-87
2022/09/20 07:30:57;;;;;;;2.63;2.42;;;13.50;99.90;;;;;;4946169;29;20050;-87
2022/09/20 07:33:23;;;;;;;5.97;2.28;;;13.50;99.90;;;;;;4925887;29;20032;-87
2022/09/20 07:35:54;;;;;;;8.02;2.35;;;13.50;99.90;;;;;;4945679;29;20046;-87
2022/09/20 07:38:21;;;;;;;2.33;2.15;;;13.50;99.90;;;;;;4930026;29;20032;-87
2022/09/20 07:41:01;;;;;;;3.08;2.22;;;13.60;99.90;;;;;;4930061;29;20028;-87
2022/09/20 07:43:27;;;;;;;4.25;2.38;;;13.60;99.90;;;;;;4945751;29;20398;-87
2022/09/20 07:45:56;;;;;;;6.22;2.25;;;13.60;99.90;;;;;;4945579;29;20036;-87
2022/09/20 07:48:27;;;;;;;3.50;2.75;;;13.60;99.90;;;;;;4929853;29;20031;-87
2022/09/20 07:50:56;;;;;;;2.45;1.42;;;13.60;99.90;;;;;;4914038;29;20047;-88
2022/09/20 07:53:22;;;;;;;3.83;2.60;;;13.60;99.90;;;;;;4961926;29;20032;-87
2022/09/20 07:56:06;;;;;;;7.57;1.88;;;13.60;99.90;;;;;;4949860;29;20028;-87
2022/09/20 07:58:34;;;;;;;3.28;1.67;;;13.60;99.90;;;;;;4948689;29;20101;-87
2022/09/20 08:01:02;;;;;;;4.65;2.78;;;13.60;99.90;;;;;;4948688;29;20020;-87
2022/09/20 08:03:30;;;;;;;1.80;1.73;;;13.60;99.90;;;;;;4948603;29;20496;-88
2022/09/20 08:06:06;;;;;;;4.30;1.80;;;13.70;99.90;;;;;;4932729;29;20027;-87
2022/09/20 08:08:35;;;;;;;3.45;2.05;;;13.70;99.90;;;;;;4944029;29;20375;-87
2022/09/20 08:11:13;;;;;;;2.05;1.85;;;13.70;99.90;;;;;;4930172;29;20061;-87
2022/09/20 08:13:43;;;;;;;4.85;1.65;;;13.70;99.90;;;;;;4929551;29;20028;-87
2022/09/20 08:16:10;;;;;;;2.92;2.63;;;13.70;99.90;;;;;;4929407;29;20059;-87
2022/09/20 08:18:37;;;;;;;2.88;1.85;;;13.70;99.90;;;;;;4929502;29;20068;-87
2022/09/20 08:21:08;;;;;;;3.53;2.38;;;13.80;99.90;;;;;;4929194;29;20036;-87
2022/09/20 08:23:41;;;;;;;13.13;2.35;;;13.80;99.90;;;;;;4933716;29;20027;-87
2022/09/20 08:26:12;;;;;;;3.60;1.73;;;13.80;99.90;;;;;;4932727;29;20039;-87
2022/09/20 08:28:39;;;;;;;4.15;1.67;;;13.80;99.90;;;;;;4948349;29;20023;-87
2022/09/20 08:31:08;;;;;;;2.78;2.13;;;13.90;99.90;;;;;;4948192;29;20495;-87
2022/09/20 08:33:36;;;;;;;2.85;1.48;;;13.80;99.90;;;;;;4948061;29;20028;-87
2022/09/20 08:36:03;;;;;;;1.48;1.38;;;13.90;99.90;;;;;;4948032;29;20099;-87
2022/09/20 08:38:31;;;;;;;7.60;1.75;;;13.90;99.90;;;;;;4945311;29;20138;-87
2022/09/20 08:41:02;;;;;;;2.70;1.40;;;13.90;99.90;;;;;;4939826;29;20036;-87
2022/09/20 08:43:34;;;;;;;3.90;1.70;;;13.90;99.90;;;;;;4929082;29;20074;-87
2022/09/20 08:46:03;;;;;;;5.97;2.00;;;13.90;99.90;;;;;;4929342;29;20036;-87
2022/09/20 08:48:32;;;;;;;3.88;2.13;;;14.00;99.90;;;;;;4928871;29;20028;-87
2022/09/20 08:51:05;;;;;;;8.30;2.13;;;14.00;99.90;;;;;;4928695;29;20058;-87
2022/09/20 08:53:32;;;;;;;5.50;1.20;;;14.00;99.90;;;;;;4944552;29;20042;-87
2022/09/20 08:55:58;;;;;;;3.28;1.40;;;14.00;99.90;;;;;;4913285;29;20032;-87
2022/09/20 08:58:27;;;;;;;2.97;1.40;;;14.00;99.90;;;;;;4944626;29;20035;-87
2022/09/20 09:00:55;;;;;;;2.65;1.23;;;14.10;99.90;;;;;;4931909;29;20110;-87
2022/09/20 09:03:21;;;;;;;1.73;1.02;;;14.00;99.90;;;;;;4932158;29;20046;-88
2022/09/20 09:05:53;;;;;;;2.72;0.70;;;14.00;99.90;;;;;;4947587;29;20031;-87
2022/09/20 09:08:24;;;;;;;1.75;1.48;;;14.10;99.90;;;;;;4947647;29;20067;-88
2022/09/20 09:10:53;;;;;;;1.55;0.60;;;14.30;99.90;;;;;;4947982;29;20036;-87
2022/09/20 09:13:28;;;;;;;5.90;2.42;;;14.40;99.90;;;;;;4947734;29;20032;-87
2022/09/20 09:15:58;;;;;;;2.63;1.08;;;14.50;99.90;;;;;;4947739;29;20043;-87
2022/09/20 09:18:34;;;;;;;2.58;0.90;;;14.60;99.90;;;;;;4947658;29;20469;-87
2022/09/20 09:21:03;;;;;;;6.22;1.05;;;14.60;99.90;;;;;;4936935;29;20125;-88
2022/09/20 09:23:36;;;;;;;1.17;0.88;;;14.60;99.90;;;;;;4933031;29;20064;-87
2022/09/20 09:26:04;;;;;;;4.00;1.35;;;14.60;99.90;;;;;;4932579;29;20040;-88
2022/09/20 09:28:35;;;;;;;2.95;0.77;;;14.70;99.90;;;;;;4916905;29;20044;-87
2022/09/20 09:31:14;;;;;;;0.73;0.73;;;14.80;99.90;;;;;;4932915;29;20036;-88
2022/09/20 09:33:46;;;;;;;5.75;1.17;;;14.90;99.90;;;;;;4932686;29;20052;-87
2022/09/20 09:36:22;;;;;;;3.20;0.80;;;14.90;99.90;;;;;;4925203;29;20040;-88
2022/09/20 09:38:48;;;;;;;8.00;1.52;;;15.00;99.90;;;;;;4932077;29;20091;-88
2022/09/20 09:41:19;;;;;;;1.05;0.85;;;15.10;99.90;;;;;;4924728;29;20446;-88
2022/09/20 09:44:08;;;;;;;2.05;0.55;;;15.10;99.90;;;;;;4932538;29;20044;-87
2022/09/20 09:46:36;;;;;;;3.67;1.05;;;15.20;99.90;;;;;;4932655;29;20032;-87
2022/09/20 09:49:15;;;;;;;3.67;1.20;;;15.20;99.90;;;;;;4932658;29;20028;-88
2022/09/20 09:52:01;;;;;;;1.95;0.77;;;15.30;99.90;;;;;;4932707;29;20048;-88
2022/09/20 09:54:59;;;;;;;3.03;1.05;;;15.40;99.90;;;;;;4932449;29;20035;-87
2022/09/20 09:57:54;;;;;;;0.25;0.25;;;15.50;99.90;;;;;;4932309;29;20035;-87
2022/09/20 10:00:25;;;;;;;0.88;0.63;;;15.60;99.90;;;;;;4932569;29;20040;-87
2022/09/20 10:03:29;;;;;;;0.20;0.17;;;15.60;99.90;;;;;;4916965;29;20386;-88
2022/09/20 10:06:09;;;;;;;4.70;0.68;;;15.50;99.90;;;;;;4916558;29;20513;-88
2022/09/20 10:08:41;;;;;;;0.40;0.30;;;15.70;99.90;;;;;;4916584;29;20031;-88
2022/09/20 10:11:27;;;;;;;4.10;1.17;;;15.80;99.90;;;;;;4945897;29;20046;-87
2022/09/20 10:14:28;;;;;;;2.00;0.80;;;15.70;99.90;;;;;;4951359;29;20047;-88
2022/09/20 10:17:00;;;;;;;2.15;1.13;;;15.70;99.90;;;;;;4951441;29;20038;-87
2022/09/20 10:19:35;;;;;;;1.85;0.70;;;15.70;99.90;;;;;;4951118;29;20468;-87
2022/09/20 10:22:17;;;;;;;1.25;0.95;;;15.50;99.90;;;;;;4950107;29;20038;-87
2022/09/20 10:24:59;;;;;;;1.35;0.90;;;15.50;99.90;;;;;;4963685;29;20043;-86
2022/09/20 10:28:04;;;;;;;1.85;0.88;;;15.50;99.90;;;;;;4923280;29;20503;-87
2022/09/20 10:30:57;;;;;;;2.58;0.90;;;15.40;99.90;;;;;;4920696;29;20050;-86
2022/09/20 10:33:31;;;;;;;4.05;0.68;;;15.30;99.90;;;;;;4945545;29;20031;-86
2022/09/20 10:36:27;;;;;;;3.50;0.70;;;15.30;99.90;;;;;;4926511;29;20083;-87
2022/09/20 10:39:12;;;;;;;1.25;0.60;;;15.30;99.90;;;;;;4931625;29;20032;-87
2022/09/20 10:44:53;;;;;;;5.18;1.17;;;15.20;99.90;;;;;;4948428;29;20044;-87
2022/09/20 10:47:48;;;;;;;2.95;1.05;;;15.10;99.90;;;;;;4950848;29;20107;-88
2022/09/20 10:50:17;;;;;;;0.68;0.40;;;15.10;99.90;;;;;;4948578;29;20101;-87
2022/09/20 10:53:19;;;;;;;1.95;0.82;;;15.00;99.90;;;;;;4923682;29;20028;-86
2022/09/20 10:55:53;;;;;;;6.55;0.80;;;15.00;99.90;;;;;;4935113;29;20393;-87
2022/09/20 10:58:29;;;;;;;4.65;1.23;;;14.90;99.90;;;;;;4950772;29;20036;-87
2022/09/20 11:01:28;;;;;;;2.28;0.77;;;14.90;99.90;;;;;;4951017;29;20055;-87
2022/09/20 11:04:19;;;;;;;0.70;0.65;;;14.90;99.90;;;;;;4934692;29;20099;-86
2022/09/20 11:07:18;;;;;;;4.40;0.68;;;14.80;99.90;;;;;;4950584;29;20038;-86
2022/09/20 11:09:54;;;;;;;4.63;1.20;;;14.80;99.90;;;;;;4946283;29;20032;-86
2022/09/20 11:12:45;;;;;;;1.25;0.63;;;14.80;99.90;;;;;;4930547;29;20043;-86
2022/09/20 11:15:16;;;;;;;5.57;0.80;;;14.80;99.90;;;;;;4914725;29;20121;-87
2022/09/20 11:17:56;;;;;;;2.10;0.75;;;14.80;99.90;;;;;;4930580;29;20032;-86
2022/09/20 11:20:26;;;;;;;2.80;0.90;;;14.80;99.90;;;;;;4914720;29;20046;-87
2022/09/20 11:23:15;;;;;;;0.40;0.40;;;14.80;99.90;;;;;;4945913;29;20067;-87
2022/09/20 11:25:55;;;;;;;2.50;0.82;;;14.70;99.90;;;;;;4930460;29;20446;-86
2022/09/20 11:28:25;;;;;;;3.00;0.68;;;14.70;99.90;;;;;;4914758;29;20497;-87
2022/09/20 11:31:03;;;;;;;4.63;1.15;;;14.70;99.90;;;;;;4914992;29;20032;-87
2022/09/20 11:33:51;;;;;;;2.72;1.02;;;14.70;99.90;;;;;;4930495;29;20036;-87
2022/09/20 11:36:38;;;;;;;1.55;0.80;;;14.70;99.90;;;;;;4930529;29;20438;-86
2022/09/20 11:39:39;;;;;;;4.38;1.55;;;14.70;99.90;;;;;;4943312;29;20516;-86
2022/09/20 11:42:11;;;;;;;2.42;0.85;;;14.70;99.90;;;;;;4923909;29;20155;-87
2022/09/20 11:44:40;;;;;;;0.80;0.80;;;14.70;99.90;;;;;;4948672;29;20474;-87
2022/09/20 11:47:14;;;;;;;0.68;0.68;;;14.70;99.90;;;;;;4933314;29;20024;-87
2022/09/20 11:50:02;;;;;;;0.98;0.65;;;14.70;99.90;;;;;;4933248;29;20035;-86
2022/09/20 11:52:40;;;;;;;1.23;1.02;;;14.70;99.90;;;;;;4933573;29;20040;-87
2022/09/20 11:55:27;;;;;;;3.15;1.00;;;14.70;99.90;;;;;;4930141;29;20032;-86
2022/09/20 11:58:21;;;;;;;1.98;0.85;;;14.70;99.90;;;;;;4929987;29;20127;-87
2022/09/20 12:00:54;;;;;;;1.05;0.80;;;14.70;99.90;;;;;;4927717;29;20044;-87
2022/09/20 12:03:39;;;;;;;2.60;0.68;;;14.70;99.90;;;;;;4929916;29;20032;-86
2022/09/20 12:06:19;;;;;;;1.52;1.05;;;14.70;99.90;;;;;;4929726;29;20039;-86
2022/09/20 12:08:49;;;;;;;2.22;0.98;;;14.70;99.90;;;;;;4929750;29;20099;-87
2022/09/20 12:11:16;;;;;;;5.88;1.17;;;14.80;99.90;;;;;;4913932;29;20028;-86
2022/09/20 12:13:54;;;;;;;1.23;1.13;;;14.80;99.90;;;;;;4913729;29;20040;-87
2022/09/20 12:16:41;;;;;;;1.65;0.93;;;14.80;99.90;;;;;;4929520;29;20032;-87
2022/09/20 12:19:12;;;;;;;0.85;0.63;;;14.80;99.90;;;;;;4929670;29;20039;-86
2022/09/20 12:21:57;;;;;;;1.83;0.93;;;14.80;99.90;;;;;;4930486;29;20036;-87
2022/09/20 12:24:27;;;;;;;1.35;0.93;;;14.90;99.90;;;;;;4931362;29;20047;-87
2022/09/20 12:26:58;;;;;;;2.97;1.35;;;15.00;99.90;;;;;;4948593;29;20038;-86
2022/09/20 12:29:25;;;;;;;0.95;0.88;;;15.20;99.90;;;;;;4948151;29;20079;-86
2022/09/20 12:31:57;;;;;;;1.55;1.42;;;15.30;99.90;;;;;;4948090;29;20055;-86
2022/09/20 12:34:24;;;;;;;1.27;0.77;;;15.30;99.90;;;;;;4937236;29;20177;-87
2022/09/20 12:36:51;;;;;;;2.17;0.70;;;15.30;99.90;;;;;;4932269;29;20069;-87
2022/09/20 12:39:21;;;;;;;1.58;0.88;;;15.20;99.90;;;;;;4946312;29;20059;-86
2022/09/20 12:41:57;;;;;;;1.02;0.80;;;15.10;99.90;;;;;;4947720;29;20027;-87
2022/09/20 12:44:29;;;;;;;2.00;0.70;;;15.10;99.90;;;;;;4932232;29;20047;-87
2022/09/20 12:47:10;;;;;;;4.05;0.75;;;15.00;99.90;;;;;;4932090;29;20043;-87
2022/09/20 12:52:49;;;;;;;4.85;1.42;;;14.90;99.90;;;;;;4948365;29;20055;-87
2022/09/20 12:56:03;;;;;;;1.35;0.70;;;14.90;99.90;;;;;;4932534;29;20032;-86
2022/09/20 12:58:29;;;;;;;1.75;1.00;;;14.90;99.90;;;;;;4932151;29;20111;-86
2022/09/20 13:00:58;;;;;;;0.85;0.77;;;14.80;99.90;;;;;;4931886;29;20027;-86
2022/09/20 13:03:30;;;;;;;6.78;1.50;;;14.80;99.90;;;;;;4932621;29;20437;-87
2022/09/20 13:06:07;;;;;;;1.17;0.88;;;14.80;99.90;;;;;;4932014;29;20032;-86
2022/09/20 13:08:51;;;;;;;2.25;1.23;;;14.80;99.90;;;;;;4947907;29;20036;-86
2022/09/20 13:11:23;;;;;;;1.45;0.77;;;14.80;99.90;;;;;;4932047;29;20035;-86
2022/09/20 13:13:56;;;;;;;1.17;0.73;;;14.80;99.90;;;;;;4949140;29;20028;-86
2022/09/20 13:16:28;;;;;;;3.95;1.42;;;14.80;99.90;;;;;;4931634;29;20063;-87
2022/09/20 13:19:06;;;;;;;4.10;1.75;;;14.90;99.90;;;;;;4949201;29;20459;-86
2022/09/20 13:21:39;;;;;;;6.78;2.03;;;14.90;99.90;;;;;;4932042;29;20032;-86
2022/09/20 13:24:06;;;;;;;7.63;1.88;;;15.00;99.90;;;;;;4931823;29;20042;-86
2022/09/20 13:26:39;;;;;;;2.40;1.48;;;15.10;99.90;;;;;;4932033;29;20508;-86
2022/09/20 13:29:19;;;;;;;0.70;0.63;;;15.10;99.90;;;;;;4947468;29;20038;-86
2022/09/20 13:31:45;;;;;;;;;;;15.20;99.90;;;;;;4933401;29;20490;-87
2022/09/20 13:34:19;;;;;;;2.90;1.65;;;15.20;99.90;;;;;;4928633;29;19931;-86
2022/09/20 13:36:46;;;;;;;4.78;1.23;;;15.20;99.90;;;;;;4928537;29;20044;-86
2022/09/20 13:39:35;;;;;;;1.17;0.80;;;15.20;99.90;;;;;;4928633;29;20128;-86
2022/09/20 13:42:06;;;;;;;1.25;1.15;;;15.30;99.90;;;;;;4928665;29;20046;-86
2022/09/20 13:44:33;;;;;;;3.65;0.82;;;15.30;99.90;;;;;;4928675;29;20032;-86
2022/09/20 13:47:00;;;;;;;1.73;0.80;;;15.30;99.90;;;;;;4929982;29;20385;-86
2022/09/20 13:49:30;;;;;;;4.88;2.78;;;15.30;99.90;;;;;;4948731;29;20036;-86
2022/09/20 13:51:56;;;;;;;3.67;1.02;;;15.40;99.90;;;;;;4931592;29;20103;-87
2022/09/20 13:54:29;;;;;;;1.55;1.38;;;15.40;99.90;;;;;;4915993;29;20032;-86